sensor_id;sensor_type;location;lat;lon;timestamp;temperature;humidity
70336;SHT31;57756;47.408;18.940;2022-09-21T00:00:36;9.14;91.80
70336;SHT31;57756;47.408;18.940;2022-09-21T00:03:02;9.10;92.04
70336;SHT31;57756;47.408;18.940;2022-09-21T00:05:28;9.08;92.16
70336;SHT31;57756;47.408;18.940;2022-09-21T00:07:53;9.03;92.37
70336;SHT31;57756;47.408;18.940;2022-09-21T00:10:19;9.05;92.31
70336;SHT31;57756;47.408;18.940;2022-09-21T00:12:47;9.00;92.46
70336;SHT31;57756;47.408;18.940;2022-09-21T00:15:14;9.01;92.31
70336;SHT31;57756;47.408;18.940;2022-09-21T00:17:42;9.03;92.41
70336;SHT31;57756;47.408;18.940;2022-09-21T00:20:07;9.04;92.43
70336;SHT31;57756;47.408;18.940;2022-09-21T00:22:33;9.04;92.32
70336;SHT31;57756;47.408;18.940;2022-09-21T00:24:59;9.07;91.95
70336;SHT31;57756;47.408;18.940;2022-09-21T00:27:28;9.10;92.14
70336;SHT31;57756;47.408;18.940;2022-09-21T00:29:58;9.10;92.08
70336;SHT31;57756;47.408;18.940;2022-09-21T00:32:28;9.10;91.83
70336;SHT31;57756;47.408;18.940;2022-09-21T00:34:56;9.10;91.86
70336;SHT31;57756;47.408;18.940;2022-09-21T00:37:23;9.05;91.90
70336;SHT31;57756;47.408;18.940;2022-09-21T00:39:49;9.03;91.81
70336;SHT31;57756;47.408;18.940;2022-09-21T00:42:23;9.01;91.96
70336;SHT31;57756;47.408;18.940;2022-09-21T00:44:50;8.96;91.80
70336;SHT31;57756;47.408;18.940;2022-09-21T00:47:19;8.94;92.08
70336;SHT31;57756;47.408;18.940;2022-09-21T00:49:47;8.91;92.32
70336;SHT31;57756;47.408;18.940;2022-09-21T00:52:15;8.92;92.04
70336;SHT31;57756;47.408;18.940;2022-09-21T00:54:52;8.88;92.21
70336;SHT31;57756;47.408;18.940;2022-09-21T00:57:20;8.83;92.46
70336;SHT31;57756;47.408;18.940;2022-09-21T00:59:49;8.80;92.33
70336;SHT31;57756;47.408;18.940;2022-09-21T01:02:17;8.80;92.34
70336;SHT31;57756;47.408;18.940;2022-09-21T01:04:43;8.77;92.28
70336;SHT31;57756;47.408;18.940;2022-09-21T01:07:12;8.80;92.16
70336;SHT31;57756;47.408;18.940;2022-09-21T01:09:41;8.80;92.28
70336;SHT31;57756;47.408;18.940;2022-09-21T01:15:28;8.78;92.32
70336;SHT31;57756;47.408;18.940;2022-09-21T01:21:12;8.73;92.32
70336;SHT31;57756;47.408;18.940;2022-09-21T01:24:00;8.69;92.26
70336;SHT31;57756;47.408;18.940;2022-09-21T01:26:52;8.67;92.31
70336;SHT31;57756;47.408;18.940;2022-09-21T01:29:43;8.67;92.59
70336;SHT31;57756;47.408;18.940;2022-09-21T01:34:51;8.70;92.43
70336;SHT31;57756;47.408;18.940;2022-09-21T01:37:27;8.71;92.27
70336;SHT31;57756;47.408;18.940;2022-09-21T01:39:58;8.76;92.14
70336;SHT31;57756;47.408;18.940;2022-09-21T01:42:25;8.73;92.04
70336;SHT31;57756;47.408;18.940;2022-09-21T01:44:54;8.71;92.06
70336;SHT31;57756;47.408;18.940;2022-09-21T01:47:21;8.71;92.08
70336;SHT31;57756;47.408;18.940;2022-09-21T01:49:51;8.67;91.89
70336;SHT31;57756;47.408;18.940;2022-09-21T01:52:38;8.70;92.02
70336;SHT31;57756;47.408;18.940;2022-09-21T01:55:26;8.67;92.11
70336;SHT31;57756;47.408;18.940;2022-09-21T01:58:13;8.70;92.08
70336;SHT31;57756;47.408;18.940;2022-09-21T02:00:43;8.76;92.00
70336;SHT31;57756;47.408;18.940;2022-09-21T02:05:49;8.78;92.00
70336;SHT31;57756;47.408;18.940;2022-09-21T02:08:14;8.83;91.86
70336;SHT31;57756;47.408;18.940;2022-09-21T02:10:47;8.85;91.73
70336;SHT31;57756;47.408;18.940;2022-09-21T02:13:14;8.87;91.58
70336;SHT31;57756;47.408;18.940;2022-09-21T02:24:34;8.96;91.35
70336;SHT31;57756;47.408;18.940;2022-09-21T02:27:05;9.01;91.39
70336;SHT31;57756;47.408;18.940;2022-09-21T02:29:44;9.03;91.26
70336;SHT31;57756;47.408;18.940;2022-09-21T02:32:22;9.03;91.03
70336;SHT31;57756;47.408;18.940;2022-09-21T02:35:20;9.07;91.04
70336;SHT31;57756;47.408;18.940;2022-09-21T02:37:54;9.11;91.08
70336;SHT31;57756;47.408;18.940;2022-09-21T02:40:40;9.14;90.79
70336;SHT31;57756;47.408;18.940;2022-09-21T02:43:26;9.11;90.84
70336;SHT31;57756;47.408;18.940;2022-09-21T02:46:01;9.11;90.46
70336;SHT31;57756;47.408;18.940;2022-09-21T02:48:39;9.15;90.80
70336;SHT31;57756;47.408;18.940;2022-09-21T02:51:16;9.11;90.92
70336;SHT31;57756;47.408;18.940;2022-09-21T02:53:44;9.07;90.52
70336;SHT31;57756;47.408;18.940;2022-09-21T02:56:12;9.05;90.72
70336;SHT31;57756;47.408;18.940;2022-09-21T02:58:42;9.03;90.75
70336;SHT31;57756;47.408;18.940;2022-09-21T03:01:10;9.03;90.60
70336;SHT31;57756;47.408;18.940;2022-09-21T03:03:37;8.97;90.83
70336;SHT31;57756;47.408;18.940;2022-09-21T03:06:02;8.94;90.79
70336;SHT31;57756;47.408;18.940;2022-09-21T03:08:28;8.94;91.13
70336;SHT31;57756;47.408;18.940;2022-09-21T03:10:54;8.92;91.04
70336;SHT31;57756;47.408;18.940;2022-09-21T03:13:20;8.88;91.05
70336;SHT31;57756;47.408;18.940;2022-09-21T03:15:46;8.85;90.98
70336;SHT31;57756;47.408;18.940;2022-09-21T03:18:11;8.90;90.96
70336;SHT31;57756;47.408;18.940;2022-09-21T03:20:40;8.91;90.86
70336;SHT31;57756;47.408;18.940;2022-09-21T03:23:10;8.88;91.02
70336;SHT31;57756;47.408;18.940;2022-09-21T03:25:36;8.84;90.93
70336;SHT31;57756;47.408;18.940;2022-09-21T03:28:02;8.88;91.08
70336;SHT31;57756;47.408;18.940;2022-09-21T03:30:27;8.88;91.19
70336;SHT31;57756;47.408;18.940;2022-09-21T03:32:54;8.88;91.01
70336;SHT31;57756;47.408;18.940;2022-09-21T03:35:21;8.84;91.09
70336;SHT31;57756;47.408;18.940;2022-09-21T03:37:48;8.84;91.17
70336;SHT31;57756;47.408;18.940;2022-09-21T03:40:15;8.81;91.23
70336;SHT31;57756;47.408;18.940;2022-09-21T03:42:43;8.76;91.15
70336;SHT31;57756;47.408;18.940;2022-09-21T03:45:10;8.74;91.17
70336;SHT31;57756;47.408;18.940;2022-09-21T03:47:37;8.80;91.00
70336;SHT31;57756;47.408;18.940;2022-09-21T03:50:04;8.77;91.13
70336;SHT31;57756;47.408;18.940;2022-09-21T03:52:29;8.80;90.97
70336;SHT31;57756;47.408;18.940;2022-09-21T03:54:55;8.78;90.78
70336;SHT31;57756;47.408;18.940;2022-09-21T03:57:21;8.74;90.66
70336;SHT31;57756;47.408;18.940;2022-09-21T03:59:46;8.78;90.76
70336;SHT31;57756;47.408;18.940;2022-09-21T04:02:12;8.77;90.85
70336;SHT31;57756;47.408;18.940;2022-09-21T04:04:38;8.74;91.08
70336;SHT31;57756;47.408;18.940;2022-09-21T04:07:03;8.76;90.91
70336;SHT31;57756;47.408;18.940;2022-09-21T04:09:29;8.76;90.71
70336;SHT31;57756;47.408;18.940;2022-09-21T04:11:54;8.67;90.79
70336;SHT31;57756;47.408;18.940;2022-09-21T04:14:20;8.67;90.91
70336;SHT31;57756;47.408;18.940;2022-09-21T04:16:47;8.60;91.21
70336;SHT31;57756;47.408;18.940;2022-09-21T04:19:13;8.57;91.23
70336;SHT31;57756;47.408;18.940;2022-09-21T04:21:38;8.57;91.51
70336;SHT31;57756;47.408;18.940;2022-09-21T04:24:03;8.60;91.38
70336;SHT31;57756;47.408;18.940;2022-09-21T04:26:33;8.63;91.41
70336;SHT31;57756;47.408;18.940;2022-09-21T04:28:59;8.66;91.25
70336;SHT31;57756;47.408;18.940;2022-09-21T04:31:26;8.67;91.14
70336;SHT31;57756;47.408;18.940;2022-09-21T04:33:53;8.69;91.36
70336;SHT31;57756;47.408;18.940;2022-09-21T04:36:20;8.70;91.16
70336;SHT31;57756;47.408;18.940;2022-09-21T04:38:46;8.70;91.37
70336;SHT31;57756;47.408;18.940;2022-09-21T04:41:13;8.73;91.13
70336;SHT31;57756;47.408;18.940;2022-09-21T04:43:44;8.74;91.16
70336;SHT31;57756;47.408;18.940;2022-09-21T04:46:13;8.77;91.12
70336;SHT31;57756;47.408;18.940;2022-09-21T04:48:39;8.81;91.06
70336;SHT31;57756;47.408;18.940;2022-09-21T04:51:05;8.85;91.10
70336;SHT31;57756;47.408;18.940;2022-09-21T04:53:32;8.90;90.79
70336;SHT31;57756;47.408;18.940;2022-09-21T04:55:57;8.94;90.67
70336;SHT31;57756;47.408;18.940;2022-09-21T04:58:23;8.96;90.83
70336;SHT31;57756;47.408;18.940;2022-09-21T05:00:50;8.94;90.35
70336;SHT31;57756;47.408;18.940;2022-09-21T05:03:19;9.00;90.55
70336;SHT31;57756;47.408;18.940;2022-09-21T05:05:49;8.98;90.51
70336;SHT31;57756;47.408;18.940;2022-09-21T05:08:15;8.97;90.46
70336;SHT31;57756;47.408;18.940;2022-09-21T05:10:42;9.03;90.46
70336;SHT31;57756;47.408;18.940;2022-09-21T05:13:07;9.04;90.39
70336;SHT31;57756;47.408;18.940;2022-09-21T05:15:33;9.03;90.68
70336;SHT31;57756;47.408;18.940;2022-09-21T05:17:58;9.12;90.37
70336;SHT31;57756;47.408;18.940;2022-09-21T05:20:24;9.17;90.20
70336;SHT31;57756;47.408;18.940;2022-09-21T05:22:49;9.25;90.28
70336;SHT31;57756;47.408;18.940;2022-09-21T05:25:15;9.42;89.59
70336;SHT31;57756;47.408;18.940;2022-09-21T05:27:41;9.60;89.62
70336;SHT31;57756;47.408;18.940;2022-09-21T05:30:08;9.69;88.97
70336;SHT31;57756;47.408;18.940;2022-09-21T05:32:47;9.64;88.49
70336;SHT31;57756;47.408;18.940;2022-09-21T05:35:37;9.63;88.65
70336;SHT31;57756;47.408;18.940;2022-09-21T05:38:17;9.52;89.25
70336;SHT31;57756;47.408;18.940;2022-09-21T05:40:44;9.50;89.39
70336;SHT31;57756;47.408;18.940;2022-09-21T05:43:12;9.56;88.87
70336;SHT31;57756;47.408;18.940;2022-09-21T05:45:46;9.72;88.54
70336;SHT31;57756;47.408;18.940;2022-09-21T05:48:22;10.03;87.68
70336;SHT31;57756;47.408;18.940;2022-09-21T05:54:00;10.15;86.91
70336;SHT31;57756;47.408;18.940;2022-09-21T05:56:47;10.03;87.35
70336;SHT31;57756;47.408;18.940;2022-09-21T06:02:30;9.90;87.69
70336;SHT31;57756;47.408;18.940;2022-09-21T06:04:58;9.94;87.66
70336;SHT31;57756;47.408;18.940;2022-09-21T06:07:25;9.95;87.58
70336;SHT31;57756;47.408;18.940;2022-09-21T06:09:51;9.94;87.58
70336;SHT31;57756;47.408;18.940;2022-09-21T06:12:16;9.95;87.66
70336;SHT31;57756;47.408;18.940;2022-09-21T06:14:42;9.95;87.65
70336;SHT31;57756;47.408;18.940;2022-09-21T06:17:08;9.98;87.76
70336;SHT31;57756;47.408;18.940;2022-09-21T06:19:34;9.95;87.96
70336;SHT31;57756;47.408;18.940;2022-09-21T06:21:59;10.00;87.60
70336;SHT31;57756;47.408;18.940;2022-09-21T06:24:25;10.01;87.56
70336;SHT31;57756;47.408;18.940;2022-09-21T06:26:50;10.28;86.95
70336;SHT31;57756;47.408;18.940;2022-09-21T06:29:16;10.50;86.25
70336;SHT31;57756;47.408;18.940;2022-09-21T06:31:50;10.70;85.46
70336;SHT31;57756;47.408;18.940;2022-09-21T06:34:16;11.10;84.69
70336;SHT31;57756;47.408;18.940;2022-09-21T06:36:42;11.51;83.32
70336;SHT31;57756;47.408;18.940;2022-09-21T06:39:10;11.78;82.43
70336;SHT31;57756;47.408;18.940;2022-09-21T06:41:35;12.12;81.39
70336;SHT31;57756;47.408;18.940;2022-09-21T06:44:01;12.45;80.54
70336;SHT31;57756;47.408;18.940;2022-09-21T06:46:26;12.71;79.22
70336;SHT31;57756;47.408;18.940;2022-09-21T06:48:52;12.85;79.04
70336;SHT31;57756;47.408;18.940;2022-09-21T06:51:18;13.09;78.42
70336;SHT31;57756;47.408;18.940;2022-09-21T06:53:46;13.48;77.40
70336;SHT31;57756;47.408;18.940;2022-09-21T06:56:12;13.50;76.34
70336;SHT31;57756;47.408;18.940;2022-09-21T06:58:38;13.75;75.98
70336;SHT31;57756;47.408;18.940;2022-09-21T07:01:04;14.13;75.34
70336;SHT31;57756;47.408;18.940;2022-09-21T07:03:30;14.34;74.06
70336;SHT31;57756;47.408;18.940;2022-09-21T07:05:56;14.47;73.86
70336;SHT31;57756;47.408;18.940;2022-09-21T07:08:21;14.56;73.73
70336;SHT31;57756;47.408;18.940;2022-09-21T07:10:48;14.55;72.55
70336;SHT31;57756;47.408;18.940;2022-09-21T07:13:13;14.83;72.33
70336;SHT31;57756;47.408;18.940;2022-09-21T07:15:40;15.12;71.74
70336;SHT31;57756;47.408;18.940;2022-09-21T07:18:13;15.32;71.09
70336;SHT31;57756;47.408;18.940;2022-09-21T07:20:39;15.15;70.84
70336;SHT31;57756;47.408;18.940;2022-09-21T07:23:11;15.63;70.47
70336;SHT31;57756;47.408;18.940;2022-09-21T07:25:44;15.97;70.78
70336;SHT31;57756;47.408;18.940;2022-09-21T07:28:11;16.30;69.69
70336;SHT31;57756;47.408;18.940;2022-09-21T07:30:38;16.57;68.26
70336;SHT31;57756;47.408;18.940;2022-09-21T07:33:04;16.48;67.84
70336;SHT31;57756;47.408;18.940;2022-09-21T07:35:30;16.45;67.62
70336;SHT31;57756;47.408;18.940;2022-09-21T07:38:02;16.60;67.16
70336;SHT31;57756;47.408;18.940;2022-09-21T07:40:28;16.55;66.90
70336;SHT31;57756;47.408;18.940;2022-09-21T07:43:00;16.77;67.25
70336;SHT31;57756;47.408;18.940;2022-09-21T07:45:28;16.84;66.44
70336;SHT31;57756;47.408;18.940;2022-09-21T07:47:55;16.95;66.04
70336;SHT31;57756;47.408;18.940;2022-09-21T07:50:21;16.93;66.47
70336;SHT31;57756;47.408;18.940;2022-09-21T07:52:46;16.95;66.52
70336;SHT31;57756;47.408;18.940;2022-09-21T07:55:13;17.06;66.56
70336;SHT31;57756;47.408;18.940;2022-09-21T07:57:38;17.06;66.65
70336;SHT31;57756;47.408;18.940;2022-09-21T08:00:22;17.36;65.90
70336;SHT31;57756;47.408;18.940;2022-09-21T08:02:48;17.45;64.97
70336;SHT31;57756;47.408;18.940;2022-09-21T08:05:14;17.38;64.27
70336;SHT31;57756;47.408;18.940;2022-09-21T08:07:40;17.68;64.12
70336;SHT31;57756;47.408;18.940;2022-09-21T08:10:05;17.96;63.22
70336;SHT31;57756;47.408;18.940;2022-09-21T08:12:31;18.43;62.76
70336;SHT31;57756;47.408;18.940;2022-09-21T08:14:56;18.20;62.75
70336;SHT31;57756;47.408;18.940;2022-09-21T08:17:22;18.00;62.91
70336;SHT31;57756;47.408;18.940;2022-09-21T08:19:48;18.20;64.19
70336;SHT31;57756;47.408;18.940;2022-09-21T08:22:14;18.45;63.91
70336;SHT31;57756;47.408;18.940;2022-09-21T08:24:39;18.34;62.99
70336;SHT31;57756;47.408;18.940;2022-09-21T08:27:06;18.68;61.92
70336;SHT31;57756;47.408;18.940;2022-09-21T08:29:32;19.17;61.01
70336;SHT31;57756;47.408;18.940;2022-09-21T08:31:58;19.37;59.00
70336;SHT31;57756;47.408;18.940;2022-09-21T08:34:23;19.19;59.95
70336;SHT31;57756;47.408;18.940;2022-09-21T08:36:49;18.83;61.01
70336;SHT31;57756;47.408;18.940;2022-09-21T08:39:14;19.16;59.91
70336;SHT31;57756;47.408;18.940;2022-09-21T08:44:48;19.50;59.18
70336;SHT31;57756;47.408;18.940;2022-09-21T08:47:23;19.95;60.43
70336;SHT31;57756;47.408;18.940;2022-09-21T08:49:55;20.37;58.87
70336;SHT31;57756;47.408;18.940;2022-09-21T08:52:23;20.15;58.16
70336;SHT31;57756;47.408;18.940;2022-09-21T08:57:17;20.24;58.70
70336;SHT31;57756;47.408;18.940;2022-09-21T08:59:45;20.32;56.90
70336;SHT31;57756;47.408;18.940;2022-09-21T09:10:46;20.87;54.98
70336;SHT31;57756;47.408;18.940;2022-09-21T09:13:33;20.50;56.34
70336;SHT31;57756;47.408;18.940;2022-09-21T09:18:59;21.02;56.61
70336;SHT31;57756;47.408;18.940;2022-09-21T09:21:38;20.84;55.34
70336;SHT31;57756;47.408;18.940;2022-09-21T09:24:54;21.32;55.79
70336;SHT31;57756;47.408;18.940;2022-09-21T09:27:00;21.42;54.59
70336;SHT31;57756;47.408;18.940;2022-09-21T09:29:44;21.43;53.99
70336;SHT31;57756;47.408;18.940;2022-09-21T09:32:14;21.50;54.26
70336;SHT31;57756;47.408;18.940;2022-09-21T09:34:49;21.49;54.18
70336;SHT31;57756;47.408;18.940;2022-09-21T09:37:19;21.76;54.21
70336;SHT31;57756;47.408;18.940;2022-09-21T09:39:53;21.88;52.86
70336;SHT31;57756;47.408;18.940;2022-09-21T09:50:48;21.85;52.50
70336;SHT31;57756;47.408;18.940;2022-09-21T09:53:19;22.28;52.04
70336;SHT31;57756;47.408;18.940;2022-09-21T09:55:49;22.42;52.19
70336;SHT31;57756;47.408;18.940;2022-09-21T10:00:51;22.28;53.99
70336;SHT31;57756;47.408;18.940;2022-09-21T10:03:20;22.56;54.40
70336;SHT31;57756;47.408;18.940;2022-09-21T10:05:46;22.45;50.97
70336;SHT31;57756;47.408;18.940;2022-09-21T10:08:44;22.52;52.46
70336;SHT31;57756;47.408;18.940;2022-09-21T10:11:14;22.76;53.80
70336;SHT31;57756;47.408;18.940;2022-09-21T10:13:42;23.06;50.51
70336;SHT31;57756;47.408;18.940;2022-09-21T10:16:17;22.71;50.30
70336;SHT31;57756;47.408;18.940;2022-09-21T10:18:57;22.90;50.25
70336;SHT31;57756;47.408;18.940;2022-09-21T10:24:05;22.64;50.06
70336;SHT31;57756;47.408;18.940;2022-09-21T10:29:32;23.01;50.53
70336;SHT31;57756;47.408;18.940;2022-09-21T10:32:25;23.01;52.15
70336;SHT31;57756;47.408;18.940;2022-09-21T10:37:38;23.65;50.51
70336;SHT31;57756;47.408;18.940;2022-09-21T10:42:44;23.04;49.65
70336;SHT31;57756;47.408;18.940;2022-09-21T10:52:45;23.08;48.90
70336;SHT31;57756;47.408;18.940;2022-09-21T10:55:15;23.22;49.35
70336;SHT31;57756;47.408;18.940;2022-09-21T10:57:41;23.01;49.60
70336;SHT31;57756;47.408;18.940;2022-09-21T11:02:46;23.00;50.63
70336;SHT31;57756;47.408;18.940;2022-09-21T11:05:35;22.90;51.26
70336;SHT31;57756;47.408;18.940;2022-09-21T11:08:14;22.73;50.17
70336;SHT31;57756;47.408;18.940;2022-09-21T11:13:40;23.21;47.99
70336;SHT31;57756;47.408;18.940;2022-09-21T11:16:34;22.01;51.11
70336;SHT31;57756;47.408;18.940;2022-09-21T11:25:03;21.13;53.46
70336;SHT31;57756;47.408;18.940;2022-09-21T11:27:39;21.43;54.08
70336;SHT31;57756;47.408;18.940;2022-09-21T11:30:13;21.49;51.03
70336;SHT31;57756;47.408;18.940;2022-09-21T11:35:37;20.95;52.63
70336;SHT31;57756;47.408;18.940;2022-09-21T11:38:10;20.98;53.01
70336;SHT31;57756;47.408;18.940;2022-09-21T11:51:50;20.77;50.87
70336;SHT31;57756;47.408;18.940;2022-09-21T12:16:05;20.53;52.16
70336;SHT31;57756;47.408;18.940;2022-09-21T12:21:18;20.12;54.68
70336;SHT31;57756;47.408;18.940;2022-09-21T12:23:54;19.75;53.12
70336;SHT31;57756;47.408;18.940;2022-09-21T12:26:26;19.37;53.91
70336;SHT31;57756;47.408;18.940;2022-09-21T12:29:00;19.57;54.51
70336;SHT31;57756;47.408;18.940;2022-09-21T12:31:50;19.51;54.26
70336;SHT31;57756;47.408;18.940;2022-09-21T12:34:21;19.46;54.47
70336;SHT31;57756;47.408;18.940;2022-09-21T12:39:27;19.57;55.57
70336;SHT31;57756;47.408;18.940;2022-09-21T12:41:55;19.67;54.84
70336;SHT31;57756;47.408;18.940;2022-09-21T12:44:31;19.61;54.82
70336;SHT31;57756;47.408;18.940;2022-09-21T12:50:06;19.44;53.27
70336;SHT31;57756;47.408;18.940;2022-09-21T12:52:32;19.48;54.42
70336;SHT31;57756;47.408;18.940;2022-09-21T13:00:21;18.48;55.14
70336;SHT31;57756;47.408;18.940;2022-09-21T13:03:13;18.41;53.17
70336;SHT31;57756;47.408;18.940;2022-09-21T13:08:29;18.03;55.37
70336;SHT31;57756;47.408;18.940;2022-09-21T13:11:00;17.93;55.43
70336;SHT31;57756;47.408;18.940;2022-09-21T13:15:54;17.94;54.44
70336;SHT31;57756;47.408;18.940;2022-09-21T13:18:30;17.79;54.97
70336;SHT31;57756;47.408;18.940;2022-09-21T13:21:00;17.83;54.79
70336;SHT31;57756;47.408;18.940;2022-09-21T13:23:35;17.83;54.58
70336;SHT31;57756;47.408;18.940;2022-09-21T13:26:07;17.87;55.74
70336;SHT31;57756;47.408;18.940;2022-09-21T13:31:42;17.96;56.16
70336;SHT31;57756;47.408;18.940;2022-09-21T13:34:27;18.08;55.48
70336;SHT31;57756;47.408;18.940;2022-09-21T13:39:47;18.14;55.80
70336;SHT31;57756;47.408;18.940;2022-09-21T13:42:47;18.08;55.81
70336;SHT31;57756;47.408;18.940;2022-09-21T13:47:47;18.16;56.94
70336;SHT31;57756;47.408;18.940;2022-09-21T13:52:52;18.08;55.92
70336;SHT31;57756;47.408;18.940;2022-09-21T13:57:56;18.13;56.40
70336;SHT31;57756;47.408;18.940;2022-09-21T14:03:23;18.14;57.93
70336;SHT31;57756;47.408;18.940;2022-09-21T14:05:51;18.16;57.57
70336;SHT31;57756;47.408;18.940;2022-09-21T14:08:28;18.13;56.97
70336;SHT31;57756;47.408;18.940;2022-09-21T14:10:59;18.21;57.70
70336;SHT31;57756;47.408;18.940;2022-09-21T14:13:35;18.24;56.96
70336;SHT31;57756;47.408;18.940;2022-09-21T14:27:27;17.62;57.04
70336;SHT31;57756;47.408;18.940;2022-09-21T14:32:42;17.48;57.64
70336;SHT31;57756;47.408;18.940;2022-09-21T14:35:17;17.39;58.48
70336;SHT31;57756;47.408;18.940;2022-09-21T14:37:52;17.25;57.54
70336;SHT31;57756;47.408;18.940;2022-09-21T14:40:45;17.14;58.07
70336;SHT31;57756;47.408;18.940;2022-09-21T14:43:16;17.14;58.45
70336;SHT31;57756;47.408;18.940;2022-09-21T14:45:58;17.00;58.34
70336;SHT31;57756;47.408;18.940;2022-09-21T14:48:36;16.95;58.28
70336;SHT31;57756;47.408;18.940;2022-09-21T14:54:09;16.86;58.44
70336;SHT31;57756;47.408;18.940;2022-09-21T14:59:58;16.62;59.63
70336;SHT31;57756;47.408;18.940;2022-09-21T15:02:30;16.56;60.42
70336;SHT31;57756;47.408;18.940;2022-09-21T15:05:16;16.63;59.75
70336;SHT31;57756;47.408;18.940;2022-09-21T15:11:14;16.57;58.21
70336;SHT31;57756;47.408;18.940;2022-09-21T15:16:37;16.57;58.24
70336;SHT31;57756;47.408;18.940;2022-09-21T15:21:40;16.45;59.06
70336;SHT31;57756;47.408;18.940;2022-09-21T15:26:50;16.39;58.39
70336;SHT31;57756;47.408;18.940;2022-09-21T15:29:28;16.32;59.25
70336;SHT31;57756;47.408;18.940;2022-09-21T15:31:55;16.33;57.28
70336;SHT31;57756;47.408;18.940;2022-09-21T15:34:21;16.19;57.41
70336;SHT31;57756;47.408;18.940;2022-09-21T15:36:47;16.17;56.43
70336;SHT31;57756;47.408;18.940;2022-09-21T15:39:28;16.15;57.96
70336;SHT31;57756;47.408;18.940;2022-09-21T15:44:35;16.04;58.49
70336;SHT31;57756;47.408;18.940;2022-09-21T15:47:03;16.00;58.81
70336;SHT31;57756;47.408;18.940;2022-09-21T15:49:32;15.96;59.22
70336;SHT31;57756;47.408;18.940;2022-09-21T15:52:12;15.94;59.96
70336;SHT31;57756;47.408;18.940;2022-09-21T15:59:50;15.73;61.96
70336;SHT31;57756;47.408;18.940;2022-09-21T16:02:21;15.70;60.52
70336;SHT31;57756;47.408;18.940;2022-09-21T16:04:48;15.61;61.26
70336;SHT31;57756;47.408;18.940;2022-09-21T16:07:31;15.66;60.54
70336;SHT31;57756;47.408;18.940;2022-09-21T16:09:57;15.61;60.82
70336;SHT31;57756;47.408;18.940;2022-09-21T16:12:44;15.52;62.12
70336;SHT31;57756;47.408;18.940;2022-09-21T16:20:38;15.38;61.53
70336;SHT31;57756;47.408;18.940;2022-09-21T16:23:24;15.25;62.50
70336;SHT31;57756;47.408;18.940;2022-09-21T16:25:56;15.19;62.67
70336;SHT31;57756;47.408;18.940;2022-09-21T16:28:38;15.12;63.81
70336;SHT31;57756;47.408;18.940;2022-09-21T16:38:43;14.87;64.05
70336;SHT31;57756;47.408;18.940;2022-09-21T16:41:09;14.85;64.47
70336;SHT31;57756;47.408;18.940;2022-09-21T16:43:37;14.78;64.28
70336;SHT31;57756;47.408;18.940;2022-09-21T16:46:06;14.71;65.22
70336;SHT31;57756;47.408;18.940;2022-09-21T16:48:32;14.67;65.53
70336;SHT31;57756;47.408;18.940;2022-09-21T16:50:58;14.57;65.66
70336;SHT31;57756;47.408;18.940;2022-09-21T16:53:23;14.51;65.28
70336;SHT31;57756;47.408;18.940;2022-09-21T16:55:50;14.46;65.43
70336;SHT31;57756;47.408;18.940;2022-09-21T16:58:17;14.39;66.08
70336;SHT31;57756;47.408;18.940;2022-09-21T17:00:48;14.32;66.56
70336;SHT31;57756;47.408;18.940;2022-09-21T17:03:14;14.29;66.29
70336;SHT31;57756;47.408;18.940;2022-09-21T17:05:41;14.22;66.82
70336;SHT31;57756;47.408;18.940;2022-09-21T17:08:08;14.10;67.06
70336;SHT31;57756;47.408;18.940;2022-09-21T17:10:40;14.06;67.37
70336;SHT31;57756;47.408;18.940;2022-09-21T17:13:07;14.05;67.92
70336;SHT31;57756;47.408;18.940;2022-09-21T17:15:33;14.02;67.84
70336;SHT31;57756;47.408;18.940;2022-09-21T17:18:01;13.97;68.65
70336;SHT31;57756;47.408;18.940;2022-09-21T17:22:58;13.91;68.53
70336;SHT31;57756;47.408;18.940;2022-09-21T17:25:27;13.82;68.59
70336;SHT31;57756;47.408;18.940;2022-09-21T17:27:54;13.78;68.81
70336;SHT31;57756;47.408;18.940;2022-09-21T17:30:22;13.74;69.43
70336;SHT31;57756;47.408;18.940;2022-09-21T17:32:49;13.71;69.41
70336;SHT31;57756;47.408;18.940;2022-09-21T17:35:24;13.62;69.48
70336;SHT31;57756;47.408;18.940;2022-09-21T17:37:50;13.62;70.11
70336;SHT31;57756;47.408;18.940;2022-09-21T17:40:16;13.55;69.98
70336;SHT31;57756;47.408;18.940;2022-09-21T17:42:42;13.47;70.90
70336;SHT31;57756;47.408;18.940;2022-09-21T17:47:42;13.36;71.24
70336;SHT31;57756;47.408;18.940;2022-09-21T17:52:37;13.24;72.06
70336;SHT31;57756;47.408;18.940;2022-09-21T17:55:22;13.20;72.40
70336;SHT31;57756;47.408;18.940;2022-09-21T18:01:03;13.02;71.77
70336;SHT31;57756;47.408;18.940;2022-09-21T18:03:33;13.00;71.63
70336;SHT31;57756;47.408;18.940;2022-09-21T18:06:02;12.99;71.71
70336;SHT31;57756;47.408;18.940;2022-09-21T18:08:30;12.96;72.09
70336;SHT31;57756;47.408;18.940;2022-09-21T18:16:43;12.75;72.33
70336;SHT31;57756;47.408;18.940;2022-09-21T18:19:22;12.76;72.04
70336;SHT31;57756;47.408;18.940;2022-09-21T18:21:53;12.71;72.59
70336;SHT31;57756;47.408;18.940;2022-09-21T18:24:30;12.64;72.58
70336;SHT31;57756;47.408;18.940;2022-09-21T18:26:56;12.59;72.76
70336;SHT31;57756;47.408;18.940;2022-09-21T18:29:30;12.58;73.67
70336;SHT31;57756;47.408;18.940;2022-09-21T18:34:56;12.49;73.57
70336;SHT31;57756;47.408;18.940;2022-09-21T18:37:52;12.45;74.35
70336;SHT31;57756;47.408;18.940;2022-09-21T18:43:30;12.37;74.60
70336;SHT31;57756;47.408;18.940;2022-09-21T18:46:03;12.33;75.35
70336;SHT31;57756;47.408;18.940;2022-09-21T18:56:12;12.10;75.81
70336;SHT31;57756;47.408;18.940;2022-09-21T18:58:39;12.04;75.52
70336;SHT31;57756;47.408;18.940;2022-09-21T19:01:10;12.06;76.21
70336;SHT31;57756;47.408;18.940;2022-09-21T19:03:36;11.99;76.01
70336;SHT31;57756;47.408;18.940;2022-09-21T19:11:37;11.90;76.82
70336;SHT31;57756;47.408;18.940;2022-09-21T19:20:21;11.75;77.11
70336;SHT31;57756;47.408;18.940;2022-09-21T19:25:47;11.72;77.16
70336;SHT31;57756;47.408;18.940;2022-09-21T19:29:02;11.73;77.11
70336;SHT31;57756;47.408;18.940;2022-09-21T19:31:02;11.68;77.70
70336;SHT31;57756;47.408;18.940;2022-09-21T19:33:32;11.65;77.80
70336;SHT31;57756;47.408;18.940;2022-09-21T19:35:58;11.65;77.64
70336;SHT31;57756;47.408;18.940;2022-09-21T19:38:30;11.59;77.92
70336;SHT31;57756;47.408;18.940;2022-09-21T19:46:25;11.52;78.11
70336;SHT31;57756;47.408;18.940;2022-09-21T19:49:11;11.48;78.50
70336;SHT31;57756;47.408;18.940;2022-09-21T19:54:12;11.41;79.18
70336;SHT31;57756;47.408;18.940;2022-09-21T19:56:57;11.39;79.04
70336;SHT31;57756;47.408;18.940;2022-09-21T19:59:41;11.44;78.99
70336;SHT31;57756;47.408;18.940;2022-09-21T20:02:11;11.41;78.96
70336;SHT31;57756;47.408;18.940;2022-09-21T20:04:45;11.31;79.18